sensor_id;sensor_type;location;lat;lon;timestamp;P1;durP1;ratioP1;P2;durP2;ratioP2
44728;SDS011;30457;53.590;9.922;2023-08-06T00:00:59;0.82;;;0.68;;
44728;SDS011;30457;53.590;9.922;2023-08-06T00:05:25;1.58;;;1.00;;
44728;SDS011;30457;53.590;9.922;2023-08-06T00:09:51;3.03;;;1.88;;
44728;SDS011;30457;53.590;9.922;2023-08-06T00:14:16;0.98;;;0.98;;
44728;SDS011;30457;53.590;9.922;2023-08-06T00:18:42;1.52;;;1.00;;
44728;SDS011;30457;53.590;9.922;2023-08-06T00:23:08;1.15;;;0.95;;
44728;SDS011;30457;53.590;9.922;2023-08-06T00:27:33;4.15;;;1.00;;
44728;SDS011;30457;53.590;9.922;2023-08-06T00:31:59;1.35;;;1.25;;
44728;SDS011;30457;53.590;9.922;2023-08-06T00:36:24;1.70;;;1.10;;
44728;SDS011;30457;53.590;9.922;2023-08-06T00:40:50;1.20;;;1.05;;
44728;SDS011;30457;53.590;9.922;2023-08-06T00:45:16;4.47;;;1.30;;
44728;SDS011;30457;53.590;9.922;2023-08-06T00:49:41;1.85;;;1.20;;
44728;SDS011;30457;53.590;9.922;2023-08-06T00:54:07;1.58;;;1.30;;
44728;SDS011;30457;53.590;9.922;2023-08-06T00:58:34;3.13;;;1.35;;
44728;SDS011;30457;53.590;9.922;2023-08-06T01:03:00;3.38;;;1.50;;
44728;SDS011;30457;53.590;9.922;2023-08-06T01:12:25;2.85;;;1.45;;
44728;SDS011;30457;53.590;9.922;2023-08-06T01:17:14;2.22;;;1.50;;
44728;SDS011;30457;53.590;9.922;2023-08-06T01:21:40;1.65;;;1.55;;
44728;SDS011;30457;53.590;9.922;2023-08-06T01:30:47;5.03;;;1.85;;
44728;SDS011;30457;53.590;9.922;2023-08-06T01:35:15;3.08;;;1.77;;
44728;SDS011;30457;53.590;9.922;2023-08-06T01:39:44;1.92;;;1.80;;
44728;SDS011;30457;53.590;9.922;2023-08-06T01:44:09;1.45;;;1.35;;
44728;SDS011;30457;53.590;9.922;2023-08-06T01:48:35;1.70;;;1.60;;
44728;SDS011;30457;53.590;9.922;2023-08-06T01:53:00;2.47;;;1.70;;
44728;SDS011;30457;53.590;9.922;2023-08-06T01:57:26;1.98;;;1.67;;
44728;SDS011;30457;53.590;9.922;2023-08-06T02:01:51;2.55;;;1.80;;
44728;SDS011;30457;53.590;9.922;2023-08-06T02:06:17;1.95;;;1.70;;
44728;SDS011;30457;53.590;9.922;2023-08-06T02:10:44;2.22;;;1.73;;
44728;SDS011;30457;53.590;9.922;2023-08-06T02:15:10;2.53;;;1.90;;
44728;SDS011;30457;53.590;9.922;2023-08-06T02:19:35;2.25;;;2.05;;
44728;SDS011;30457;53.590;9.922;2023-08-06T02:24:01;1.70;;;1.60;;
44728;SDS011;30457;53.590;9.922;2023-08-06T02:28:29;2.40;;;1.75;;
44728;SDS011;30457;53.590;9.922;2023-08-06T02:32:55;1.95;;;1.80;;
44728;SDS011;30457;53.590;9.922;2023-08-06T02:37:20;2.33;;;1.77;;
44728;SDS011;30457;53.590;9.922;2023-08-06T02:41:46;3.22;;;2.20;;
44728;SDS011;30457;53.590;9.922;2023-08-06T02:46:11;2.75;;;1.85;;
44728;SDS011;30457;53.590;9.922;2023-08-06T02:50:37;2.38;;;1.90;;
44728;SDS011;30457;53.590;9.922;2023-08-06T02:55:04;3.30;;;1.73;;
44728;SDS011;30457;53.590;9.922;2023-08-06T02:59:32;2.88;;;2.00;;
44728;SDS011;30457;53.590;9.922;2023-08-06T03:04:04;2.20;;;2.00;;
44728;SDS011;30457;53.590;9.922;2023-08-06T03:08:35;7.22;;;2.20;;
44728;SDS011;30457;53.590;9.922;2023-08-06T03:13:01;2.00;;;1.75;;
44728;SDS011;30457;53.590;9.922;2023-08-06T03:17:27;2.20;;;2.00;;
44728;SDS011;30457;53.590;9.922;2023-08-06T03:21:53;2.63;;;2.05;;
44728;SDS011;30457;53.590;9.922;2023-08-06T03:26:21;2.42;;;2.00;;
44728;SDS011;30457;53.590;9.922;2023-08-06T03:30:46;3.53;;;1.92;;
44728;SDS011;30457;53.590;9.922;2023-08-06T03:35:12;2.67;;;1.63;;
44728;SDS011;30457;53.590;9.922;2023-08-06T03:39:38;2.20;;;1.73;;
44728;SDS011;30457;53.590;9.922;2023-08-06T03:44:05;2.25;;;2.05;;
44728;SDS011;30457;53.590;9.922;2023-08-06T03:48:31;3.70;;;1.90;;
44728;SDS011;30457;53.590;9.922;2023-08-06T03:52:57;2.22;;;2.03;;
44728;SDS011;30457;53.590;9.922;2023-08-06T03:57:22;1.98;;;1.48;;
44728;SDS011;30457;53.590;9.922;2023-08-06T04:01:48;2.20;;;1.98;;
44728;SDS011;30457;53.590;9.922;2023-08-06T04:06:14;2.83;;;2.08;;
44728;SDS011;30457;53.590;9.922;2023-08-06T04:10:40;2.08;;;1.60;;
44728;SDS011;30457;53.590;9.922;2023-08-06T04:15:06;3.28;;;1.95;;
44728;SDS011;30457;53.590;9.922;2023-08-06T04:19:31;2.33;;;1.90;;
44728;SDS011;30457;53.590;9.922;2023-08-06T04:23:57;2.05;;;1.80;;
44728;SDS011;30457;53.590;9.922;2023-08-06T04:28:23;6.55;;;1.98;;
44728;SDS011;30457;53.590;9.922;2023-08-06T04:32:49;3.05;;;2.30;;
44728;SDS011;30457;53.590;9.922;2023-08-06T04:37:16;2.80;;;1.77;;
44728;SDS011;30457;53.590;9.922;2023-08-06T04:41:42;3.88;;;2.20;;
44728;SDS011;30457;53.590;9.922;2023-08-06T04:46:07;4.65;;;1.95;;
44728;SDS011;30457;53.590;9.922;2023-08-06T04:50:33;3.97;;;1.88;;
44728;SDS011;30457;53.590;9.922;2023-08-06T04:54:59;1.95;;;1.83;;
44728;SDS011;30457;53.590;9.922;2023-08-06T04:59:24;3.22;;;1.98;;
44728;SDS011;30457;53.590;9.922;2023-08-06T05:03:50;2.63;;;2.08;;
44728;SDS011;30457;53.590;9.922;2023-08-06T05:08:15;2.58;;;2.10;;
44728;SDS011;30457;53.590;9.922;2023-08-06T05:12:41;3.88;;;2.45;;
44728;SDS011;30457;53.590;9.922;2023-08-06T05:17:07;4.00;;;2.13;;
44728;SDS011;30457;53.590;9.922;2023-08-06T05:21:33;6.15;;;1.70;;
44728;SDS011;30457;53.590;9.922;2023-08-06T05:25:58;2.33;;;1.90;;
44728;SDS011;30457;53.590;9.922;2023-08-06T05:30:24;4.00;;;2.03;;
44728;SDS011;30457;53.590;9.922;2023-08-06T05:34:49;2.25;;;2.05;;
44728;SDS011;30457;53.590;9.922;2023-08-06T05:39:15;3.25;;;2.20;;
44728;SDS011;30457;53.590;9.922;2023-08-06T05:43:40;2.80;;;2.10;;
44728;SDS011;30457;53.590;9.922;2023-08-06T05:48:06;2.67;;;2.10;;
44728;SDS011;30457;53.590;9.922;2023-08-06T05:52:31;3.03;;;2.40;;
44728;SDS011;30457;53.590;9.922;2023-08-06T05:56:57;9.65;;;2.60;;
44728;SDS011;30457;53.590;9.922;2023-08-06T06:01:23;3.83;;;2.40;;
44728;SDS011;30457;53.590;9.922;2023-08-06T06:05:48;3.85;;;2.33;;
44728;SDS011;30457;53.590;9.922;2023-08-06T06:10:14;4.18;;;2.20;;
44728;SDS011;30457;53.590;9.922;2023-08-06T06:14:39;4.78;;;2.55;;
44728;SDS011;30457;53.590;9.922;2023-08-06T06:19:05;5.47;;;2.50;;
44728;SDS011;30457;53.590;9.922;2023-08-06T06:23:30;4.47;;;2.15;;
44728;SDS011;30457;53.590;9.922;2023-08-06T06:27:56;2.67;;;2.10;;
44728;SDS011;30457;53.590;9.922;2023-08-06T06:32:22;3.08;;;2.40;;
44728;SDS011;30457;53.590;9.922;2023-08-06T06:36:47;7.20;;;2.63;;
44728;SDS011;30457;53.590;9.922;2023-08-06T06:41:13;3.63;;;2.83;;
44728;SDS011;30457;53.590;9.922;2023-08-06T06:45:38;5.30;;;2.45;;
44728;SDS011;30457;53.590;9.922;2023-08-06T06:50:04;5.72;;;2.83;;
44728;SDS011;30457;53.590;9.922;2023-08-06T06:54:30;3.10;;;2.60;;
44728;SDS011;30457;53.590;9.922;2023-08-06T06:58:56;4.18;;;2.60;;
44728;SDS011;30457;53.590;9.922;2023-08-06T07:03:21;6.30;;;2.72;;
44728;SDS011;30457;53.590;9.922;2023-08-06T07:07:47;4.07;;;2.67;;
44728;SDS011;30457;53.590;9.922;2023-08-06T07:12:13;3.78;;;2.47;;
44728;SDS011;30457;53.590;9.922;2023-08-06T07:16:39;5.68;;;3.65;;
44728;SDS011;30457;53.590;9.922;2023-08-06T07:21:04;5.30;;;3.50;;
44728;SDS011;30457;53.590;9.922;2023-08-06T07:25:30;3.55;;;2.80;;
44728;SDS011;30457;53.590;9.922;2023-08-06T07:29:55;5.38;;;3.70;;
44728;SDS011;30457;53.590;9.922;2023-08-06T07:34:21;5.03;;;3.00;;
44728;SDS011;30457;53.590;9.922;2023-08-06T07:38:46;4.70;;;3.47;;
44728;SDS011;30457;53.590;9.922;2023-08-06T07:43:16;4.47;;;3.17;;
44728;SDS011;30457;53.590;9.922;2023-08-06T07:47:42;3.58;;;3.13;;
44728;SDS011;30457;53.590;9.922;2023-08-06T07:52:08;6.13;;;3.13;;
44728;SDS011;30457;53.590;9.922;2023-08-06T07:56:33;4.15;;;3.30;;
44728;SDS011;30457;53.590;9.922;2023-08-06T08:00:59;3.42;;;2.83;;
44728;SDS011;30457;53.590;9.922;2023-08-06T08:05:24;4.47;;;2.90;;
44728;SDS011;30457;53.590;9.922;2023-08-06T08:09:50;6.78;;;3.22;;
44728;SDS011;30457;53.590;9.922;2023-08-06T08:14:16;6.93;;;3.55;;
44728;SDS011;30457;53.590;9.922;2023-08-06T08:18:41;5.97;;;3.47;;
44728;SDS011;30457;53.590;9.922;2023-08-06T08:23:07;7.10;;;3.13;;
44728;SDS011;30457;53.590;9.922;2023-08-06T08:27:32;6.95;;;3.13;;
44728;SDS011;30457;53.590;9.922;2023-08-06T08:31:58;4.20;;;3.30;;
44728;SDS011;30457;53.590;9.922;2023-08-06T08:36:23;3.53;;;3.00;;
44728;SDS011;30457;53.590;9.922;2023-08-06T08:40:50;6.50;;;3.50;;
44728;SDS011;30457;53.590;9.922;2023-08-06T08:45:18;3.10;;;2.80;;
44728;SDS011;30457;53.590;9.922;2023-08-06T08:49:47;4.63;;;3.10;;
44728;SDS011;30457;53.590;9.922;2023-08-06T08:54:15;4.40;;;3.20;;
44728;SDS011;30457;53.590;9.922;2023-08-06T08:58:42;4.00;;;2.88;;
44728;SDS011;30457;53.590;9.922;2023-08-06T09:03:08;4.90;;;3.33;;
44728;SDS011;30457;53.590;9.922;2023-08-06T09:07:41;6.82;;;3.47;;
44728;SDS011;30457;53.590;9.922;2023-08-06T09:12:19;5.60;;;3.30;;
44728;SDS011;30457;53.590;9.922;2023-08-06T09:21:14;4.60;;;3.40;;
44728;SDS011;30457;53.590;9.922;2023-08-06T09:25:41;6.53;;;3.35;;
44728;SDS011;30457;53.590;9.922;2023-08-06T09:30:07;3.28;;;2.83;;
44728;SDS011;30457;53.590;9.922;2023-08-06T09:34:33;6.03;;;3.38;;
44728;SDS011;30457;53.590;9.922;2023-08-06T09:38:58;7.22;;;3.80;;
44728;SDS011;30457;53.590;9.922;2023-08-06T09:43:24;4.60;;;3.42;;
44728;SDS011;30457;53.590;9.922;2023-08-06T09:47:50;3.78;;;3.05;;
44728;SDS011;30457;53.590;9.922;2023-08-06T09:52:20;3.10;;;2.80;;
44728;SDS011;30457;53.590;9.922;2023-08-06T09:56:47;3.38;;;2.83;;
44728;SDS011;30457;53.590;9.922;2023-08-06T10:01:13;5.25;;;2.88;;
44728;SDS011;30457;53.590;9.922;2023-08-06T10:05:40;3.78;;;3.35;;
44728;SDS011;30457;53.590;9.922;2023-08-06T10:10:07;6.10;;;3.20;;
44728;SDS011;30457;53.590;9.922;2023-08-06T10:14:34;7.90;;;3.15;;
44728;SDS011;30457;53.590;9.922;2023-08-06T10:19:02;5.22;;;3.17;;
44728;SDS011;30457;53.590;9.922;2023-08-06T10:23:33;10.75;;;3.70;;
44728;SDS011;30457;53.590;9.922;2023-08-06T10:28:01;4.68;;;3.28;;
44728;SDS011;30457;53.590;9.922;2023-08-06T10:32:52;5.95;;;3.90;;
44728;SDS011;30457;53.590;9.922;2023-08-06T10:37:35;4.72;;;3.33;;
44728;SDS011;30457;53.590;9.922;2023-08-06T10:42:01;4.15;;;3.53;;
44728;SDS011;30457;53.590;9.922;2023-08-06T10:46:27;5.70;;;3.28;;
44728;SDS011;30457;53.590;9.922;2023-08-06T10:50:53;4.53;;;2.95;;
44728;SDS011;30457;53.590;9.922;2023-08-06T10:55:23;7.18;;;3.25;;
44728;SDS011;30457;53.590;9.922;2023-08-06T10:59:50;3.88;;;2.70;;
44728;SDS011;30457;53.590;9.922;2023-08-06T11:04:16;2.92;;;2.67;;
44728;SDS011;30457;53.590;9.922;2023-08-06T11:08:46;3.25;;;2.83;;
44728;SDS011;30457;53.590;9.922;2023-08-06T11:13:18;4.18;;;3.15;;
44728;SDS011;30457;53.590;9.922;2023-08-06T11:17:44;4.57;;;3.20;;
44728;SDS011;30457;53.590;9.922;2023-08-06T11:22:10;4.45;;;3.15;;
44728;SDS011;30457;53.590;9.922;2023-08-06T11:26:36;4.15;;;2.83;;
44728;SDS011;30457;53.590;9.922;2023-08-06T11:31:01;4.03;;;3.17;;
44728;SDS011;30457;53.590;9.922;2023-08-06T11:35:29;4.70;;;3.50;;
44728;SDS011;30457;53.590;9.922;2023-08-06T11:39:54;3.63;;;2.92;;
44728;SDS011;30457;53.590;9.922;2023-08-06T11:44:21;5.15;;;3.25;;
44728;SDS011;30457;53.590;9.922;2023-08-06T11:48:51;4.97;;;3.33;;
44728;SDS011;30457;53.590;9.922;2023-08-06T11:53:17;3.45;;;3.15;;
44728;SDS011;30457;53.590;9.922;2023-08-06T11:57:44;3.20;;;2.70;;
44728;SDS011;30457;53.590;9.922;2023-08-06T12:02:09;5.50;;;3.80;;
44728;SDS011;30457;53.590;9.922;2023-08-06T12:06:41;2.75;;;2.55;;
44728;SDS011;30457;53.590;9.922;2023-08-06T12:11:08;3.15;;;2.75;;
44728;SDS011;30457;53.590;9.922;2023-08-06T12:15:34;4.25;;;3.10;;
44728;SDS011;30457;53.590;9.922;2023-08-06T12:19:59;4.50;;;3.65;;
44728;SDS011;30457;53.590;9.922;2023-08-06T12:24:25;5.28;;;3.42;;
44728;SDS011;30457;53.590;9.922;2023-08-06T12:28:51;6.13;;;3.35;;
44728;SDS011;30457;53.590;9.922;2023-08-06T12:33:19;5.70;;;3.20;;
44728;SDS011;30457;53.590;9.922;2023-08-06T12:37:45;4.18;;;3.13;;
44728;SDS011;30457;53.590;9.922;2023-08-06T12:42:11;3.58;;;3.25;;
44728;SDS011;30457;53.590;9.922;2023-08-06T12:46:36;6.38;;;3.13;;
44728;SDS011;30457;53.590;9.922;2023-08-06T12:51:02;6.95;;;3.55;;
44728;SDS011;30457;53.590;9.922;2023-08-06T12:55:27;7.22;;;4.05;;
44728;SDS011;30457;53.590;9.922;2023-08-06T12:59:53;4.65;;;3.25;;
44728;SDS011;30457;53.590;9.922;2023-08-06T13:04:18;5.65;;;2.88;;
44728;SDS011;30457;53.590;9.922;2023-08-06T13:08:44;4.78;;;2.85;;
44728;SDS011;30457;53.590;9.922;2023-08-06T13:13:09;5.45;;;3.30;;
44728;SDS011;30457;53.590;9.922;2023-08-06T13:17:35;4.18;;;3.20;;
44728;SDS011;30457;53.590;9.922;2023-08-06T13:22:02;3.72;;;2.72;;
44728;SDS011;30457;53.590;9.922;2023-08-06T13:26:30;3.55;;;2.70;;
44728;SDS011;30457;53.590;9.922;2023-08-06T13:30:55;2.78;;;2.55;;
44728;SDS011;30457;53.590;9.922;2023-08-06T13:35:21;3.75;;;2.75;;
44728;SDS011;30457;53.590;9.922;2023-08-06T13:39:47;8.57;;;3.40;;
44728;SDS011;30457;53.590;9.922;2023-08-06T13:44:12;3.50;;;2.55;;
44728;SDS011;30457;53.590;9.922;2023-08-06T13:48:39;3.40;;;2.63;;
44728;SDS011;30457;53.590;9.922;2023-08-06T13:53:05;3.42;;;2.50;;
44728;SDS011;30457;53.590;9.922;2023-08-06T13:57:30;3.55;;;2.33;;
44728;SDS011;30457;53.590;9.922;2023-08-06T14:01:56;2.80;;;2.13;;
44728;SDS011;30457;53.590;9.922;2023-08-06T14:06:24;3.55;;;2.50;;
44728;SDS011;30457;53.590;9.922;2023-08-06T14:10:50;2.72;;;1.70;;
44728;SDS011;30457;53.590;9.922;2023-08-06T14:15:16;3.45;;;1.48;;
44728;SDS011;30457;53.590;9.922;2023-08-06T14:19:42;2.97;;;1.40;;
44728;SDS011;30457;53.590;9.922;2023-08-06T14:24:07;2.67;;;1.75;;
44728;SDS011;30457;53.590;9.922;2023-08-06T14:28:33;3.35;;;1.70;;
44728;SDS011;30457;53.590;9.922;2023-08-06T14:32:59;1.90;;;1.50;;
44728;SDS011;30457;53.590;9.922;2023-08-06T14:37:25;1.70;;;1.50;;
44728;SDS011;30457;53.590;9.922;2023-08-06T14:41:51;3.92;;;1.30;;
44728;SDS011;30457;53.590;9.922;2023-08-06T14:46:16;2.25;;;1.48;;
44728;SDS011;30457;53.590;9.922;2023-08-06T14:50:42;1.90;;;1.50;;
44728;SDS011;30457;53.590;9.922;2023-08-06T14:55:07;1.30;;;1.15;;
44728;SDS011;30457;53.590;9.922;2023-08-06T14:59:33;8.20;;;1.30;;
44728;SDS011;30457;53.590;9.922;2023-08-06T15:03:59;5.13;;;1.67;;
44728;SDS011;30457;53.590;9.922;2023-08-06T15:08:24;1.85;;;1.38;;
44728;SDS011;30457;53.590;9.922;2023-08-06T15:12:50;1.52;;;1.42;;
44728;SDS011;30457;53.590;9.922;2023-08-06T15:17:15;2.90;;;1.50;;
44728;SDS011;30457;53.590;9.922;2023-08-06T15:21:41;3.50;;;1.45;;
44728;SDS011;30457;53.590;9.922;2023-08-06T15:26:08;1.40;;;1.30;;
44728;SDS011;30457;53.590;9.922;2023-08-06T15:30:34;3.13;;;1.33;;
44728;SDS011;30457;53.590;9.922;2023-08-06T15:34:59;6.45;;;2.17;;
44728;SDS011;30457;53.590;9.922;2023-08-06T15:39:25;2.88;;;1.35;;
44728;SDS011;30457;53.590;9.922;2023-08-06T15:43:50;2.38;;;1.27;;
44728;SDS011;30457;53.590;9.922;2023-08-06T15:48:16;1.67;;;1.40;;
44728;SDS011;30457;53.590;9.922;2023-08-06T15:52:42;2.83;;;1.10;;
44728;SDS011;30457;53.590;9.922;2023-08-06T15:57:07;1.52;;;1.20;;
44728;SDS011;30457;53.590;9.922;2023-08-06T16:01:33;3.15;;;1.50;;
44728;SDS011;30457;53.590;9.922;2023-08-06T16:05:58;2.72;;;1.20;;
44728;SDS011;30457;53.590;9.922;2023-08-06T16:10:24;1.40;;;1.10;;
44728;SDS011;30457;53.590;9.922;2023-08-06T16:14:49;2.20;;;1.25;;
44728;SDS011;30457;53.590;9.922;2023-08-06T16:19:15;6.70;;;1.50;;
44728;SDS011;30457;53.590;9.922;2023-08-06T16:23:40;2.50;;;1.30;;
44728;SDS011;30457;53.590;9.922;2023-08-06T16:28:06;3.80;;;1.30;;
44728;SDS011;30457;53.590;9.922;2023-08-06T16:32:31;2.35;;;1.23;;
44728;SDS011;30457;53.590;9.922;2023-08-06T16:36:59;1.80;;;1.35;;
44728;SDS011;30457;53.590;9.922;2023-08-06T16:41:24;1.65;;;1.17;;
44728;SDS011;30457;53.590;9.922;2023-08-06T16:45:53;1.10;;;1.00;;
44728;SDS011;30457;53.590;9.922;2023-08-06T16:50:21;1.38;;;1.20;;
44728;SDS011;30457;53.590;9.922;2023-08-06T16:54:47;1.90;;;1.20;;
44728;SDS011;30457;53.590;9.922;2023-08-06T16:59:14;1.85;;;1.33;;
44728;SDS011;30457;53.590;9.922;2023-08-06T17:03:39;3.50;;;1.23;;
44728;SDS011;30457;53.590;9.922;2023-08-06T17:08:05;5.78;;;1.40;;
44728;SDS011;30457;53.590;9.922;2023-08-06T17:12:31;2.00;;;1.33;;
44728;SDS011;30457;53.590;9.922;2023-08-06T17:16:56;2.03;;;1.23;;
44728;SDS011;30457;53.590;9.922;2023-08-06T17:21:22;2.45;;;1.33;;
44728;SDS011;30457;53.590;9.922;2023-08-06T17:25:47;1.80;;;1.40;;
44728;SDS011;30457;53.590;9.922;2023-08-06T17:30:13;5.20;;;1.17;;
44728;SDS011;30457;53.590;9.922;2023-08-06T17:34:38;2.05;;;1.45;;
44728;SDS011;30457;53.590;9.922;2023-08-06T17:39:04;3.05;;;1.40;;
44728;SDS011;30457;53.590;9.922;2023-08-06T17:43:30;3.80;;;1.45;;
44728;SDS011;30457;53.590;9.922;2023-08-06T17:47:57;2.03;;;1.35;;
44728;SDS011;30457;53.590;9.922;2023-08-06T17:52:22;3.78;;;1.75;;
44728;SDS011;30457;53.590;9.922;2023-08-06T17:56:48;4.13;;;1.55;;
44728;SDS011;30457;53.590;9.922;2023-08-06T18:01:13;2.17;;;1.42;;
44728;SDS011;30457;53.590;9.922;2023-08-06T18:05:39;2.28;;;1.40;;
44728;SDS011;30457;53.590;9.922;2023-08-06T18:10:04;1.70;;;1.45;;
44728;SDS011;30457;53.590;9.922;2023-08-06T18:14:30;2.97;;;1.70;;
44728;SDS011;30457;53.590;9.922;2023-08-06T18:18:56;2.67;;;1.40;;
44728;SDS011;30457;53.590;9.922;2023-08-06T18:23:23;2.33;;;1.20;;
44728;SDS011;30457;53.590;9.922;2023-08-06T18:27:48;2.65;;;1.50;;
44728;SDS011;30457;53.590;9.922;2023-08-06T18:32:14;3.50;;;1.50;;
44728;SDS011;30457;53.590;9.922;2023-08-06T18:36:39;3.30;;;1.50;;
44728;SDS011;30457;53.590;9.922;2023-08-06T18:41:05;2.05;;;1.52;;
44728;SDS011;30457;53.590;9.922;2023-08-06T18:45:30;1.52;;;1.15;;
44728;SDS011;30457;53.590;9.922;2023-08-06T18:50:04;3.30;;;1.42;;
44728;SDS011;30457;53.590;9.922;2023-08-06T18:54:30;2.42;;;1.70;;
44728;SDS011;30457;53.590;9.922;2023-08-06T18:58:55;1.90;;;1.40;;
44728;SDS011;30457;53.590;9.922;2023-08-06T19:03:21;4.22;;;1.40;;
44728;SDS011;30457;53.590;9.922;2023-08-06T19:07:46;3.05;;;1.75;;
44728;SDS011;30457;53.590;9.922;2023-08-06T19:12:14;3.47;;;1.58;;
44728;SDS011;30457;53.590;9.922;2023-08-06T19:16:40;2.40;;;1.30;;
44728;SDS011;30457;53.590;9.922;2023-08-06T19:21:10;2.55;;;1.80;;
44728;SDS011;30457;53.590;9.922;2023-08-06T19:25:39;2.42;;;1.65;;
44728;SDS011;30457;53.590;9.922;2023-08-06T19:30:07;5.00;;;2.35;;
44728;SDS011;30457;53.590;9.922;2023-08-06T19:34:34;1.70;;;1.58;;
44728;SDS011;30457;53.590;9.922;2023-08-06T19:38:59;2.70;;;1.80;;
44728;SDS011;30457;53.590;9.922;2023-08-06T19:43:25;2.88;;;1.85;;
44728;SDS011;30457;53.590;9.922;2023-08-06T19:47:51;2.25;;;1.95;;
44728;SDS011;30457;53.590;9.922;2023-08-06T19:52:16;7.88;;;1.60;;
44728;SDS011;30457;53.590;9.922;2023-08-06T19:56:42;5.80;;;1.58;;
44728;SDS011;30457;53.590;9.922;2023-08-06T20:01:07;6.53;;;2.05;;
44728;SDS011;30457;53.590;9.922;2023-08-06T20:05:34;2.30;;;1.65;;
44728;SDS011;30457;53.590;9.922;2023-08-06T20:10:00;7.15;;;1.98;;
44728;SDS011;30457;53.590;9.922;2023-08-06T20:14:25;3.08;;;1.75;;
44728;SDS011;30457;53.590;9.922;2023-08-06T20:18:51;7.93;;;1.63;;
44728;SDS011;30457;53.590;9.922;2023-08-06T20:23:17;3.05;;;1.48;;
44728;SDS011;30457;53.590;9.922;2023-08-06T20:27:42;3.38;;;1.75;;
44728;SDS011;30457;53.590;9.922;2023-08-06T20:32:08;4.03;;;1.85;;
44728;SDS011;30457;53.590;9.922;2023-08-06T20:36:33;1.90;;;1.70;;
44728;SDS011;30457;53.590;9.922;2023-08-06T20:40:59;2.35;;;1.75;;
44728;SDS011;30457;53.590;9.922;2023-08-06T20:45:25;1.73;;;1.50;;
44728;SDS011;30457;53.590;9.922;2023-08-06T20:49:50;2.67;;;1.88;;
44728;SDS011;30457;53.590;9.922;2023-08-06T20:54:16;3.58;;;1.52;;
44728;SDS011;30457;53.590;9.922;2023-08-06T20:58:41;1.40;;;1.30;;
44728;SDS011;30457;53.590;9.922;2023-08-06T21:03:07;2.20;;;1.90;;
44728;SDS011;30457;53.590;9.922;2023-08-06T21:07:32;2.15;;;1.30;;
44728;SDS011;30457;53.590;9.922;2023-08-06T21:11:58;2.38;;;1.55;;
44728;SDS011;30457;53.590;9.922;2023-08-06T21:16:23;3.78;;;1.60;;
44728;SDS011;30457;53.590;9.922;2023-08-06T21:20:52;2.00;;;1.48;;
44728;SDS011;30457;53.590;9.922;2023-08-06T21:25:18;4.95;;;2.45;;
44728;SDS011;30457;53.590;9.922;2023-08-06T21:29:44;1.48;;;1.30;;
44728;SDS011;30457;53.590;9.922;2023-08-06T21:34:09;2.78;;;1.67;;
44728;SDS011;30457;53.590;9.922;2023-08-06T21:38:36;3.80;;;1.80;;
44728;SDS011;30457;53.590;9.922;2023-08-06T21:43:02;2.90;;;1.58;;
44728;SDS011;30457;53.590;9.922;2023-08-06T21:47:28;2.00;;;1.80;;
44728;SDS011;30457;53.590;9.922;2023-08-06T21:51:54;3.95;;;1.75;;
44728;SDS011;30457;53.590;9.922;2023-08-06T21:56:20;3.33;;;1.50;;
44728;SDS011;30457;53.590;9.922;2023-08-06T22:00:46;3.95;;;1.80;;
44728;SDS011;30457;53.590;9.922;2023-08-06T22:05:12;4.05;;;1.80;;
44728;SDS011;30457;53.590;9.922;2023-08-06T22:09:38;4.03;;;1.80;;
44728;SDS011;30457;53.590;9.922;2023-08-06T22:14:03;3.00;;;1.40;;
44728;SDS011;30457;53.590;9.922;2023-08-06T22:18:29;2.20;;;1.60;;
44728;SDS011;30457;53.590;9.922;2023-08-06T22:22:54;2.75;;;1.45;;
44728;SDS011;30457;53.590;9.922;2023-08-06T22:27:20;2.20;;;1.80;;
44728;SDS011;30457;53.590;9.922;2023-08-06T22:31:46;2.80;;;1.45;;
44728;SDS011;30457;53.590;9.922;2023-08-06T22:36:11;2.78;;;1.55;;
44728;SDS011;30457;53.590;9.922;2023-08-06T22:40:37;6.97;;;1.50;;
44728;SDS011;30457;53.590;9.922;2023-08-06T22:45:03;3.58;;;1.50;;
44728;SDS011;30457;53.590;9.922;2023-08-06T22:49:29;2.72;;;1.80;;
44728;SDS011;30457;53.590;9.922;2023-08-06T22:53:55;1.77;;;1.27;;
44728;SDS011;30457;53.590;9.922;2023-08-06T22:58:20;4.05;;;1.73;;
44728;SDS011;30457;53.590;9.922;2023-08-06T23:02:46;2.65;;;1.35;;
44728;SDS011;30457;53.590;9.922;2023-08-06T23:07:11;2.30;;;1.40;;
44728;SDS011;30457;53.590;9.922;2023-08-06T23:11:37;2.05;;;1.20;;
44728;SDS011;30457;53.590;9.922;2023-08-06T23:16:02;5.63;;;1.70;;
44728;SDS011;30457;53.590;9.922;2023-08-06T23:20:28;1.17;;;1.08;;
44728;SDS011;30457;53.590;9.922;2023-08-06T23:24:54;1.48;;;1.30;;
44728;SDS011;30457;53.590;9.922;2023-08-06T23:29:19;2.78;;;1.30;;
44728;SDS011;30457;53.590;9.922;2023-08-06T23:33:45;2.25;;;1.20;;
44728;SDS011;30457;53.590;9.922;2023-08-06T23:38:11;1.30;;;1.20;;
44728;SDS011;30457;53.590;9.922;2023-08-06T23:42:36;1.67;;;1.45;;
44728;SDS011;30457;53.590;9.922;2023-08-06T23:47:02;1.30;;;1.20;;
44728;SDS011;30457;53.590;9.922;2023-08-06T23:51:28;4.07;;;1.83;;
44728;SDS011;30457;53.590;9.922;2023-08-06T23:55:53;4.20;;;2.13;;
